sensor_id;sensor_type;location;lat;lon;timestamp;P1;durP1;ratioP1;P2;durP2;ratioP2
13590;SDS011;6866;50.778;7.206;2023-11-19T00:01:35;2.28;;;1.00;;
13590;SDS011;6866;50.778;7.206;2023-11-19T00:04:00;2.67;;;1.10;;
13590;SDS011;6866;50.778;7.206;2023-11-19T00:06:26;2.55;;;1.05;;
13590;SDS011;6866;50.778;7.206;2023-11-19T00:08:52;2.47;;;0.82;;
13590;SDS011;6866;50.778;7.206;2023-11-19T00:11:18;2.78;;;1.10;;
13590;SDS011;6866;50.778;7.206;2023-11-19T00:13:43;0.85;;;0.60;;
13590;SDS011;6866;50.778;7.206;2023-11-19T00:16:09;3.17;;;0.70;;
13590;SDS011;6866;50.778;7.206;2023-11-19T00:18:35;1.60;;;0.70;;
13590;SDS011;6866;50.778;7.206;2023-11-19T00:21:01;2.97;;;0.77;;
13590;SDS011;6866;50.778;7.206;2023-11-19T00:23:27;1.73;;;0.60;;
13590;SDS011;6866;50.778;7.206;2023-11-19T00:25:53;0.98;;;0.57;;
13590;SDS011;6866;50.778;7.206;2023-11-19T00:28:18;2.22;;;0.73;;
13590;SDS011;6866;50.778;7.206;2023-11-19T00:30:44;2.58;;;0.65;;
13590;SDS011;6866;50.778;7.206;2023-11-19T00:33:10;2.33;;;0.70;;
13590;SDS011;6866;50.778;7.206;2023-11-19T00:35:35;2.03;;;0.73;;
13590;SDS011;6866;50.778;7.206;2023-11-19T00:38:02;3.22;;;0.70;;
13590;SDS011;6866;50.778;7.206;2023-11-19T00:40:28;2.33;;;0.60;;
13590;SDS011;6866;50.778;7.206;2023-11-19T00:42:54;2.63;;;0.70;;
13590;SDS011;6866;50.778;7.206;2023-11-19T00:45:20;1.48;;;0.70;;
13590;SDS011;6866;50.778;7.206;2023-11-19T00:47:45;1.52;;;0.60;;
13590;SDS011;6866;50.778;7.206;2023-11-19T00:50:11;3.50;;;0.70;;
13590;SDS011;6866;50.778;7.206;2023-11-19T00:52:37;2.30;;;0.60;;
13590;SDS011;6866;50.778;7.206;2023-11-19T00:55:04;2.97;;;0.80;;
13590;SDS011;6866;50.778;7.206;2023-11-19T00:57:30;1.23;;;0.60;;
13590;SDS011;6866;50.778;7.206;2023-11-19T00:59:57;1.67;;;0.50;;
13590;SDS011;6866;50.778;7.206;2023-11-19T01:02:23;1.40;;;0.60;;
13590;SDS011;6866;50.778;7.206;2023-11-19T01:04:49;1.90;;;0.50;;
13590;SDS011;6866;50.778;7.206;2023-11-19T01:07:15;2.45;;;0.60;;
13590;SDS011;6866;50.778;7.206;2023-11-19T01:09:41;1.80;;;0.60;;
13590;SDS011;6866;50.778;7.206;2023-11-19T01:12:07;1.80;;;0.68;;
13590;SDS011;6866;50.778;7.206;2023-11-19T01:14:35;2.00;;;0.50;;
13590;SDS011;6866;50.778;7.206;2023-11-19T01:17:01;4.95;;;0.60;;
13590;SDS011;6866;50.778;7.206;2023-11-19T01:19:26;1.63;;;0.57;;
13590;SDS011;6866;50.778;7.206;2023-11-19T01:21:53;1.75;;;0.60;;
13590;SDS011;6866;50.778;7.206;2023-11-19T01:24:19;1.55;;;0.70;;
13590;SDS011;6866;50.778;7.206;2023-11-19T01:26:45;1.92;;;0.70;;
13590;SDS011;6866;50.778;7.206;2023-11-19T01:29:12;2.17;;;0.60;;
13590;SDS011;6866;50.778;7.206;2023-11-19T01:31:45;1.10;;;0.55;;
13590;SDS011;6866;50.778;7.206;2023-11-19T01:34:16;2.67;;;0.77;;
13590;SDS011;6866;50.778;7.206;2023-11-19T01:36:41;0.82;;;0.50;;
13590;SDS011;6866;50.778;7.206;2023-11-19T01:39:07;1.70;;;0.65;;
13590;SDS011;6866;50.778;7.206;2023-11-19T01:41:35;4.50;;;0.75;;
13590;SDS011;6866;50.778;7.206;2023-11-19T01:44:01;2.03;;;0.70;;
13590;SDS011;6866;50.778;7.206;2023-11-19T01:46:27;2.10;;;0.70;;
13590;SDS011;6866;50.778;7.206;2023-11-19T01:48:53;2.10;;;0.75;;
13590;SDS011;6866;50.778;7.206;2023-11-19T01:51:20;1.50;;;0.77;;
13590;SDS011;6866;50.778;7.206;2023-11-19T01:53:47;1.67;;;0.70;;
13590;SDS011;6866;50.778;7.206;2023-11-19T01:56:14;2.83;;;1.00;;
13590;SDS011;6866;50.778;7.206;2023-11-19T01:58:40;1.13;;;0.65;;
13590;SDS011;6866;50.778;7.206;2023-11-19T02:03:43;1.58;;;0.65;;
13590;SDS011;6866;50.778;7.206;2023-11-19T02:06:09;1.30;;;0.60;;
13590;SDS011;6866;50.778;7.206;2023-11-19T02:08:35;2.42;;;0.70;;
13590;SDS011;6866;50.778;7.206;2023-11-19T02:11:02;1.95;;;0.60;;
13590;SDS011;6866;50.778;7.206;2023-11-19T02:13:28;2.70;;;0.63;;
13590;SDS011;6866;50.778;7.206;2023-11-19T02:15:53;2.63;;;0.50;;
13590;SDS011;6866;50.778;7.206;2023-11-19T02:20:52;2.50;;;0.60;;
13590;SDS011;6866;50.778;7.206;2023-11-19T02:23:19;1.42;;;0.60;;
13590;SDS011;6866;50.778;7.206;2023-11-19T02:29:06;2.33;;;0.70;;
13590;SDS011;6866;50.778;7.206;2023-11-19T02:31:32;3.67;;;2.42;;
13590;SDS011;6866;50.778;7.206;2023-11-19T02:34:00;3.83;;;2.15;;
13590;SDS011;6866;50.778;7.206;2023-11-19T02:36:27;1.45;;;0.70;;
13590;SDS011;6866;50.778;7.206;2023-11-19T02:38:53;1.27;;;0.60;;
13590;SDS011;6866;50.778;7.206;2023-11-19T02:41:18;2.55;;;0.70;;
13590;SDS011;6866;50.778;7.206;2023-11-19T02:43:44;2.80;;;0.70;;
13590;SDS011;6866;50.778;7.206;2023-11-19T02:46:09;2.28;;;0.75;;
13590;SDS011;6866;50.778;7.206;2023-11-19T02:48:36;3.80;;;1.00;;
13590;SDS011;6866;50.778;7.206;2023-11-19T02:51:04;5.57;;;2.08;;
13590;SDS011;6866;50.778;7.206;2023-11-19T02:53:34;3.80;;;0.90;;
13590;SDS011;6866;50.778;7.206;2023-11-19T02:56:00;2.15;;;0.68;;
13590;SDS011;6866;50.778;7.206;2023-11-19T02:58:42;3.80;;;0.70;;
13590;SDS011;6866;50.778;7.206;2023-11-19T03:01:09;2.97;;;0.80;;
13590;SDS011;6866;50.778;7.206;2023-11-19T03:03:44;2.28;;;0.80;;
13590;SDS011;6866;50.778;7.206;2023-11-19T03:06:14;2.35;;;0.80;;
13590;SDS011;6866;50.778;7.206;2023-11-19T03:08:39;3.60;;;0.80;;
13590;SDS011;6866;50.778;7.206;2023-11-19T03:11:05;2.08;;;0.60;;
13590;SDS011;6866;50.778;7.206;2023-11-19T03:13:30;3.63;;;0.60;;
13590;SDS011;6866;50.778;7.206;2023-11-19T03:15:56;1.92;;;0.63;;
13590;SDS011;6866;50.778;7.206;2023-11-19T03:18:21;3.67;;;0.70;;
13590;SDS011;6866;50.778;7.206;2023-11-19T03:20:47;3.20;;;0.80;;
13590;SDS011;6866;50.778;7.206;2023-11-19T03:23:12;3.10;;;0.80;;
13590;SDS011;6866;50.778;7.206;2023-11-19T03:25:38;4.47;;;0.80;;
13590;SDS011;6866;50.778;7.206;2023-11-19T03:28:04;3.70;;;0.88;;
13590;SDS011;6866;50.778;7.206;2023-11-19T03:30:29;1.50;;;0.60;;
13590;SDS011;6866;50.778;7.206;2023-11-19T03:32:56;3.85;;;0.80;;
13590;SDS011;6866;50.778;7.206;2023-11-19T03:35:22;3.38;;;0.77;;
13590;SDS011;6866;50.778;7.206;2023-11-19T03:37:48;4.75;;;0.70;;
13590;SDS011;6866;50.778;7.206;2023-11-19T03:40:14;4.38;;;0.82;;
13590;SDS011;6866;50.778;7.206;2023-11-19T03:42:40;4.38;;;0.90;;
13590;SDS011;6866;50.778;7.206;2023-11-19T03:45:06;5.72;;;1.20;;
13590;SDS011;6866;50.778;7.206;2023-11-19T03:47:33;3.20;;;1.00;;
13590;SDS011;6866;50.778;7.206;2023-11-19T03:49:59;4.85;;;1.10;;
13590;SDS011;6866;50.778;7.206;2023-11-19T03:52:25;5.22;;;0.98;;
13590;SDS011;6866;50.778;7.206;2023-11-19T03:54:52;5.40;;;1.15;;
13590;SDS011;6866;50.778;7.206;2023-11-19T03:57:18;5.43;;;1.23;;
13590;SDS011;6866;50.778;7.206;2023-11-19T03:59:43;6.22;;;1.30;;
13590;SDS011;6866;50.778;7.206;2023-11-19T04:02:09;6.72;;;1.35;;
13590;SDS011;6866;50.778;7.206;2023-11-19T04:04:35;7.18;;;1.40;;
13590;SDS011;6866;50.778;7.206;2023-11-19T04:07:01;7.63;;;1.40;;
13590;SDS011;6866;50.778;7.206;2023-11-19T04:09:28;7.15;;;1.50;;
13590;SDS011;6866;50.778;7.206;2023-11-19T04:11:54;5.72;;;1.27;;
13590;SDS011;6866;50.778;7.206;2023-11-19T04:14:19;6.38;;;1.75;;
13590;SDS011;6866;50.778;7.206;2023-11-19T04:16:45;8.90;;;1.90;;
13590;SDS011;6866;50.778;7.206;2023-11-19T04:19:11;8.45;;;1.80;;
13590;SDS011;6866;50.778;7.206;2023-11-19T04:21:39;8.60;;;1.58;;
13590;SDS011;6866;50.778;7.206;2023-11-19T04:24:06;8.52;;;1.70;;
13590;SDS011;6866;50.778;7.206;2023-11-19T04:26:31;7.70;;;1.73;;
13590;SDS011;6866;50.778;7.206;2023-11-19T04:28:57;9.77;;;1.92;;
13590;SDS011;6866;50.778;7.206;2023-11-19T04:31:23;10.80;;;2.10;;
13590;SDS011;6866;50.778;7.206;2023-11-19T04:33:53;10.68;;;2.25;;
13590;SDS011;6866;50.778;7.206;2023-11-19T04:36:20;7.07;;;1.75;;
13590;SDS011;6866;50.778;7.206;2023-11-19T04:38:49;7.82;;;1.75;;
13590;SDS011;6866;50.778;7.206;2023-11-19T04:41:14;12.15;;;2.20;;
13590;SDS011;6866;50.778;7.206;2023-11-19T04:43:40;8.38;;;1.70;;
13590;SDS011;6866;50.778;7.206;2023-11-19T04:46:05;10.27;;;2.00;;
13590;SDS011;6866;50.778;7.206;2023-11-19T04:48:31;7.22;;;1.90;;
13590;SDS011;6866;50.778;7.206;2023-11-19T04:50:57;10.30;;;2.20;;
13590;SDS011;6866;50.778;7.206;2023-11-19T04:53:22;11.25;;;2.75;;
13590;SDS011;6866;50.778;7.206;2023-11-19T04:55:48;11.05;;;2.17;;
13590;SDS011;6866;50.778;7.206;2023-11-19T04:58:13;10.25;;;2.53;;
13590;SDS011;6866;50.778;7.206;2023-11-19T05:00:39;11.52;;;2.30;;
13590;SDS011;6866;50.778;7.206;2023-11-19T05:03:04;9.20;;;2.20;;
13590;SDS011;6866;50.778;7.206;2023-11-19T05:05:30;12.73;;;2.40;;
13590;SDS011;6866;50.778;7.206;2023-11-19T05:07:55;12.50;;;2.28;;
13590;SDS011;6866;50.778;7.206;2023-11-19T05:10:22;14.88;;;3.08;;
13590;SDS011;6866;50.778;7.206;2023-11-19T05:12:47;11.25;;;2.25;;
13590;SDS011;6866;50.778;7.206;2023-11-19T05:15:13;12.35;;;2.40;;
13590;SDS011;6866;50.778;7.206;2023-11-19T05:17:39;15.48;;;3.10;;
13590;SDS011;6866;50.778;7.206;2023-11-19T05:20:05;13.40;;;2.65;;
13590;SDS011;6866;50.778;7.206;2023-11-19T05:22:38;12.00;;;2.88;;
13590;SDS011;6866;50.778;7.206;2023-11-19T05:25:07;11.90;;;2.78;;
13590;SDS011;6866;50.778;7.206;2023-11-19T05:27:33;12.20;;;2.85;;
13590;SDS011;6866;50.778;7.206;2023-11-19T05:30:00;15.98;;;3.22;;
13590;SDS011;6866;50.778;7.206;2023-11-19T05:32:26;13.27;;;3.20;;
13590;SDS011;6866;50.778;7.206;2023-11-19T05:34:52;16.95;;;3.47;;
13590;SDS011;6866;50.778;7.206;2023-11-19T05:37:17;16.95;;;3.60;;
13590;SDS011;6866;50.778;7.206;2023-11-19T05:39:44;21.90;;;4.00;;
13590;SDS011;6866;50.778;7.206;2023-11-19T05:42:10;18.20;;;3.67;;
13590;SDS011;6866;50.778;7.206;2023-11-19T05:44:36;14.52;;;3.33;;
13590;SDS011;6866;50.778;7.206;2023-11-19T05:47:02;19.05;;;3.55;;
13590;SDS011;6866;50.778;7.206;2023-11-19T05:49:29;19.40;;;4.10;;
13590;SDS011;6866;50.778;7.206;2023-11-19T05:51:54;16.73;;;3.72;;
13590;SDS011;6866;50.778;7.206;2023-11-19T05:54:21;21.92;;;4.55;;
13590;SDS011;6866;50.778;7.206;2023-11-19T05:56:49;16.80;;;3.63;;
13590;SDS011;6866;50.778;7.206;2023-11-19T05:59:15;20.40;;;3.80;;
13590;SDS011;6866;50.778;7.206;2023-11-19T06:01:43;17.90;;;3.50;;
13590;SDS011;6866;50.778;7.206;2023-11-19T06:04:09;22.10;;;4.00;;
13590;SDS011;6866;50.778;7.206;2023-11-19T06:06:35;16.10;;;3.53;;
13590;SDS011;6866;50.778;7.206;2023-11-19T06:09:01;15.02;;;3.50;;
13590;SDS011;6866;50.778;7.206;2023-11-19T06:11:27;17.83;;;3.90;;
13590;SDS011;6866;50.778;7.206;2023-11-19T06:13:53;16.77;;;3.60;;
13590;SDS011;6866;50.778;7.206;2023-11-19T06:16:18;16.17;;;3.83;;
13590;SDS011;6866;50.778;7.206;2023-11-19T06:18:44;20.70;;;4.07;;
13590;SDS011;6866;50.778;7.206;2023-11-19T06:21:10;21.13;;;4.30;;
13590;SDS011;6866;50.778;7.206;2023-11-19T06:23:37;23.58;;;4.47;;
13590;SDS011;6866;50.778;7.206;2023-11-19T06:26:02;20.25;;;4.03;;
13590;SDS011;6866;50.778;7.206;2023-11-19T06:28:28;23.08;;;4.45;;
13590;SDS011;6866;50.778;7.206;2023-11-19T06:30:53;21.20;;;4.32;;
13590;SDS011;6866;50.778;7.206;2023-11-19T06:33:19;23.35;;;4.90;;
13590;SDS011;6866;50.778;7.206;2023-11-19T06:35:45;21.20;;;4.00;;
13590;SDS011;6866;50.778;7.206;2023-11-19T06:38:10;25.38;;;4.93;;
13590;SDS011;6866;50.778;7.206;2023-11-19T06:40:36;26.75;;;5.13;;
13590;SDS011;6866;50.778;7.206;2023-11-19T06:43:01;21.83;;;4.53;;
13590;SDS011;6866;50.778;7.206;2023-11-19T06:45:33;23.70;;;4.90;;
13590;SDS011;6866;50.778;7.206;2023-11-19T06:48:00;22.75;;;4.72;;
13590;SDS011;6866;50.778;7.206;2023-11-19T06:50:28;24.20;;;5.00;;
13590;SDS011;6866;50.778;7.206;2023-11-19T06:52:53;22.60;;;4.95;;
13590;SDS011;6866;50.778;7.206;2023-11-19T06:55:19;25.67;;;4.82;;
13590;SDS011;6866;50.778;7.206;2023-11-19T06:57:44;28.00;;;5.20;;
13590;SDS011;6866;50.778;7.206;2023-11-19T07:00:10;25.20;;;4.65;;
13590;SDS011;6866;50.778;7.206;2023-11-19T07:02:36;20.40;;;4.72;;
13590;SDS011;6866;50.778;7.206;2023-11-19T07:05:02;23.58;;;5.20;;
13590;SDS011;6866;50.778;7.206;2023-11-19T07:07:30;23.65;;;5.60;;
13590;SDS011;6866;50.778;7.206;2023-11-19T07:09:58;24.85;;;5.22;;
13590;SDS011;6866;50.778;7.206;2023-11-19T07:12:24;20.98;;;4.93;;
13590;SDS011;6866;50.778;7.206;2023-11-19T07:14:51;22.55;;;4.88;;
13590;SDS011;6866;50.778;7.206;2023-11-19T07:17:18;26.85;;;5.30;;
13590;SDS011;6866;50.778;7.206;2023-11-19T07:19:45;20.63;;;4.47;;
13590;SDS011;6866;50.778;7.206;2023-11-19T07:22:11;20.75;;;4.20;;
13590;SDS011;6866;50.778;7.206;2023-11-19T07:24:38;21.95;;;4.70;;
13590;SDS011;6866;50.778;7.206;2023-11-19T07:27:04;18.50;;;4.38;;
13590;SDS011;6866;50.778;7.206;2023-11-19T07:29:29;22.08;;;4.45;;
13590;SDS011;6866;50.778;7.206;2023-11-19T07:31:56;21.77;;;4.72;;
13590;SDS011;6866;50.778;7.206;2023-11-19T07:34:22;22.73;;;4.75;;
13590;SDS011;6866;50.778;7.206;2023-11-19T07:36:47;25.00;;;4.43;;
13590;SDS011;6866;50.778;7.206;2023-11-19T07:39:13;20.83;;;4.18;;
13590;SDS011;6866;50.778;7.206;2023-11-19T07:41:38;24.60;;;4.50;;
13590;SDS011;6866;50.778;7.206;2023-11-19T07:44:04;24.05;;;5.50;;
13590;SDS011;6866;50.778;7.206;2023-11-19T07:46:29;23.98;;;5.25;;
13590;SDS011;6866;50.778;7.206;2023-11-19T07:48:55;26.38;;;4.85;;
13590;SDS011;6866;50.778;7.206;2023-11-19T07:51:20;24.85;;;5.05;;
13590;SDS011;6866;50.778;7.206;2023-11-19T07:53:46;23.27;;;4.90;;
13590;SDS011;6866;50.778;7.206;2023-11-19T07:56:12;20.90;;;4.40;;
13590;SDS011;6866;50.778;7.206;2023-11-19T07:58:37;21.95;;;5.10;;
13590;SDS011;6866;50.778;7.206;2023-11-19T08:01:03;21.02;;;4.70;;
13590;SDS011;6866;50.778;7.206;2023-11-19T08:03:30;28.55;;;5.25;;
13590;SDS011;6866;50.778;7.206;2023-11-19T08:05:55;22.48;;;5.22;;
13590;SDS011;6866;50.778;7.206;2023-11-19T08:08:24;23.40;;;5.47;;
13590;SDS011;6866;50.778;7.206;2023-11-19T08:10:49;20.92;;;5.15;;
13590;SDS011;6866;50.778;7.206;2023-11-19T08:13:17;22.48;;;5.13;;
13590;SDS011;6866;50.778;7.206;2023-11-19T08:15:43;20.35;;;4.43;;
13590;SDS011;6866;50.778;7.206;2023-11-19T08:18:08;26.13;;;4.95;;
13590;SDS011;6866;50.778;7.206;2023-11-19T08:20:34;23.13;;;4.85;;
13590;SDS011;6866;50.778;7.206;2023-11-19T08:23:02;21.30;;;4.75;;
13590;SDS011;6866;50.778;7.206;2023-11-19T08:25:28;22.83;;;4.47;;
13590;SDS011;6866;50.778;7.206;2023-11-19T08:27:54;24.17;;;5.20;;
13590;SDS011;6866;50.778;7.206;2023-11-19T08:30:20;23.08;;;4.85;;
13590;SDS011;6866;50.778;7.206;2023-11-19T08:32:45;21.48;;;4.78;;
13590;SDS011;6866;50.778;7.206;2023-11-19T08:35:11;24.05;;;5.43;;
13590;SDS011;6866;50.778;7.206;2023-11-19T08:37:36;20.73;;;4.60;;
13590;SDS011;6866;50.778;7.206;2023-11-19T08:40:03;21.60;;;5.15;;
13590;SDS011;6866;50.778;7.206;2023-11-19T08:42:29;23.73;;;4.95;;
13590;SDS011;6866;50.778;7.206;2023-11-19T08:44:55;21.60;;;5.32;;
13590;SDS011;6866;50.778;7.206;2023-11-19T08:47:21;20.65;;;4.63;;
13590;SDS011;6866;50.778;7.206;2023-11-19T08:49:47;19.83;;;4.57;;
13590;SDS011;6866;50.778;7.206;2023-11-19T08:52:16;21.60;;;4.85;;
13590;SDS011;6866;50.778;7.206;2023-11-19T08:54:42;20.17;;;4.88;;
13590;SDS011;6866;50.778;7.206;2023-11-19T08:57:08;23.23;;;5.53;;
13590;SDS011;6866;50.778;7.206;2023-11-19T08:59:34;21.77;;;5.10;;
13590;SDS011;6866;50.778;7.206;2023-11-19T09:01:59;22.77;;;4.85;;
13590;SDS011;6866;50.778;7.206;2023-11-19T09:04:25;19.35;;;4.90;;
13590;SDS011;6866;50.778;7.206;2023-11-19T09:09:16;23.38;;;4.95;;
13590;SDS011;6866;50.778;7.206;2023-11-19T09:11:41;20.90;;;5.05;;
13590;SDS011;6866;50.778;7.206;2023-11-19T09:14:07;18.25;;;4.85;;
13590;SDS011;6866;50.778;7.206;2023-11-19T09:16:33;18.42;;;4.82;;
13590;SDS011;6866;50.778;7.206;2023-11-19T09:18:58;22.35;;;4.88;;
13590;SDS011;6866;50.778;7.206;2023-11-19T09:21:25;21.80;;;5.25;;
13590;SDS011;6866;50.778;7.206;2023-11-19T09:23:51;17.38;;;4.20;;
13590;SDS011;6866;50.778;7.206;2023-11-19T09:26:18;23.48;;;5.00;;
13590;SDS011;6866;50.778;7.206;2023-11-19T09:28:44;20.63;;;4.97;;
13590;SDS011;6866;50.778;7.206;2023-11-19T09:31:16;22.05;;;5.65;;
13590;SDS011;6866;50.778;7.206;2023-11-19T09:33:43;21.17;;;4.70;;
13590;SDS011;6866;50.778;7.206;2023-11-19T09:36:09;21.90;;;5.07;;
13590;SDS011;6866;50.778;7.206;2023-11-19T09:38:38;20.70;;;5.25;;
13590;SDS011;6866;50.778;7.206;2023-11-19T09:41:05;21.40;;;4.55;;
13590;SDS011;6866;50.778;7.206;2023-11-19T09:43:33;20.67;;;4.95;;
13590;SDS011;6866;50.778;7.206;2023-11-19T09:45:59;19.58;;;4.75;;
13590;SDS011;6866;50.778;7.206;2023-11-19T09:48:35;19.98;;;5.00;;
13590;SDS011;6866;50.778;7.206;2023-11-19T09:51:05;22.70;;;5.50;;
13590;SDS011;6866;50.778;7.206;2023-11-19T09:53:31;19.65;;;4.88;;
13590;SDS011;6866;50.778;7.206;2023-11-19T09:55:59;18.17;;;5.07;;
13590;SDS011;6866;50.778;7.206;2023-11-19T09:58:27;22.30;;;5.53;;
13590;SDS011;6866;50.778;7.206;2023-11-19T10:00:54;27.00;;;5.88;;
13590;SDS011;6866;50.778;7.206;2023-11-19T10:03:19;22.92;;;6.15;;
13590;SDS011;6866;50.778;7.206;2023-11-19T10:05:47;25.95;;;5.90;;
13590;SDS011;6866;50.778;7.206;2023-11-19T10:08:13;21.63;;;6.50;;
13590;SDS011;6866;50.778;7.206;2023-11-19T10:10:39;23.63;;;6.50;;
13590;SDS011;6866;50.778;7.206;2023-11-19T10:13:04;20.38;;;5.18;;
13590;SDS011;6866;50.778;7.206;2023-11-19T10:15:33;23.60;;;6.25;;
13590;SDS011;6866;50.778;7.206;2023-11-19T10:18:02;24.00;;;6.87;;
13590;SDS011;6866;50.778;7.206;2023-11-19T10:20:34;23.05;;;5.80;;
13590;SDS011;6866;50.778;7.206;2023-11-19T10:23:00;24.67;;;5.97;;
13590;SDS011;6866;50.778;7.206;2023-11-19T10:25:27;25.92;;;6.53;;
13590;SDS011;6866;50.778;7.206;2023-11-19T10:27:54;25.40;;;6.25;;
13590;SDS011;6866;50.778;7.206;2023-11-19T10:30:20;29.00;;;7.25;;
13590;SDS011;6866;50.778;7.206;2023-11-19T10:33:02;23.13;;;6.32;;
13590;SDS011;6866;50.778;7.206;2023-11-19T10:35:32;24.33;;;6.22;;
13590;SDS011;6866;50.778;7.206;2023-11-19T10:37:59;27.88;;;6.95;;
13590;SDS011;6866;50.778;7.206;2023-11-19T10:40:37;24.73;;;6.03;;
13590;SDS011;6866;50.778;7.206;2023-11-19T10:43:04;25.05;;;6.43;;
13590;SDS011;6866;50.778;7.206;2023-11-19T10:45:31;30.80;;;7.25;;
13590;SDS011;6866;50.778;7.206;2023-11-19T10:47:58;26.17;;;7.10;;
13590;SDS011;6866;50.778;7.206;2023-11-19T10:50:24;29.27;;;7.60;;
13590;SDS011;6866;50.778;7.206;2023-11-19T10:52:52;23.10;;;6.10;;
13590;SDS011;6866;50.778;7.206;2023-11-19T10:55:25;28.77;;;6.93;;
13590;SDS011;6866;50.778;7.206;2023-11-19T10:57:59;30.48;;;8.00;;
13590;SDS011;6866;50.778;7.206;2023-11-19T11:00:30;30.35;;;9.77;;
13590;SDS011;6866;50.778;7.206;2023-11-19T11:05:41;23.60;;;6.35;;
13590;SDS011;6866;50.778;7.206;2023-11-19T11:08:07;24.27;;;5.88;;
13590;SDS011;6866;50.778;7.206;2023-11-19T11:10:35;22.90;;;6.93;;
13590;SDS011;6866;50.778;7.206;2023-11-19T11:13:04;23.92;;;7.82;;
13590;SDS011;6866;50.778;7.206;2023-11-19T11:15:31;20.35;;;5.93;;
13590;SDS011;6866;50.778;7.206;2023-11-19T11:17:59;22.88;;;6.00;;
13590;SDS011;6866;50.778;7.206;2023-11-19T11:20:32;23.35;;;6.78;;
13590;SDS011;6866;50.778;7.206;2023-11-19T11:26:27;25.02;;;6.30;;
13590;SDS011;6866;50.778;7.206;2023-11-19T11:29:20;24.30;;;4.97;;
13590;SDS011;6866;50.778;7.206;2023-11-19T11:34:53;23.77;;;4.95;;
13590;SDS011;6866;50.778;7.206;2023-11-19T11:37:39;24.15;;;6.13;;
13590;SDS011;6866;50.778;7.206;2023-11-19T11:40:15;25.35;;;6.07;;
13590;SDS011;6866;50.778;7.206;2023-11-19T11:42:41;21.05;;;5.70;;
13590;SDS011;6866;50.778;7.206;2023-11-19T11:45:10;24.77;;;5.47;;
13590;SDS011;6866;50.778;7.206;2023-11-19T11:50:09;20.50;;;4.97;;
13590;SDS011;6866;50.778;7.206;2023-11-19T11:55:36;20.30;;;4.65;;
13590;SDS011;6866;50.778;7.206;2023-11-19T11:58:35;24.15;;;5.10;;
13590;SDS011;6866;50.778;7.206;2023-11-19T12:01:03;18.02;;;4.35;;
13590;SDS011;6866;50.778;7.206;2023-11-19T12:03:31;21.33;;;5.13;;
13590;SDS011;6866;50.778;7.206;2023-11-19T12:05:57;23.35;;;4.70;;
13590;SDS011;6866;50.778;7.206;2023-11-19T12:08:27;19.58;;;4.45;;
13590;SDS011;6866;50.778;7.206;2023-11-19T12:10:54;20.67;;;4.65;;
13590;SDS011;6866;50.778;7.206;2023-11-19T12:13:24;19.42;;;4.47;;
13590;SDS011;6866;50.778;7.206;2023-11-19T12:16:07;21.10;;;5.05;;
13590;SDS011;6866;50.778;7.206;2023-11-19T12:18:33;21.63;;;5.18;;
13590;SDS011;6866;50.778;7.206;2023-11-19T12:20:59;19.67;;;4.55;;
13590;SDS011;6866;50.778;7.206;2023-11-19T12:23:31;18.08;;;5.47;;
13590;SDS011;6866;50.778;7.206;2023-11-19T12:25:57;24.13;;;4.95;;
13590;SDS011;6866;50.778;7.206;2023-11-19T12:28:23;22.58;;;5.15;;
13590;SDS011;6866;50.778;7.206;2023-11-19T12:30:51;19.27;;;4.65;;
13590;SDS011;6866;50.778;7.206;2023-11-19T12:33:18;19.33;;;5.65;;
13590;SDS011;6866;50.778;7.206;2023-11-19T12:35:45;24.20;;;5.53;;
13590;SDS011;6866;50.778;7.206;2023-11-19T12:38:20;20.02;;;4.57;;
13590;SDS011;6866;50.778;7.206;2023-11-19T12:41:03;20.73;;;5.22;;
13590;SDS011;6866;50.778;7.206;2023-11-19T12:45:59;19.30;;;5.68;;
13590;SDS011;6866;50.778;7.206;2023-11-19T12:48:25;33.33;;;16.10;;
13590;SDS011;6866;50.778;7.206;2023-11-19T12:50:54;24.70;;;11.10;;
13590;SDS011;6866;50.778;7.206;2023-11-19T12:53:22;24.83;;;11.07;;
13590;SDS011;6866;50.778;7.206;2023-11-19T12:55:49;20.77;;;5.20;;
13590;SDS011;6866;50.778;7.206;2023-11-19T12:58:34;20.35;;;5.40;;
13590;SDS011;6866;50.778;7.206;2023-11-19T13:01:05;20.38;;;5.00;;
13590;SDS011;6866;50.778;7.206;2023-11-19T13:03:32;16.98;;;4.97;;
13590;SDS011;6866;50.778;7.206;2023-11-19T13:06:05;20.35;;;4.35;;
13590;SDS011;6866;50.778;7.206;2023-11-19T13:11:13;19.30;;;4.75;;
13590;SDS011;6866;50.778;7.206;2023-11-19T13:13:57;18.65;;;4.70;;
13590;SDS011;6866;50.778;7.206;2023-11-19T13:16:33;18.02;;;4.95;;
13590;SDS011;6866;50.778;7.206;2023-11-19T13:19:01;19.08;;;4.45;;
13590;SDS011;6866;50.778;7.206;2023-11-19T13:21:27;18.60;;;4.85;;
13590;SDS011;6866;50.778;7.206;2023-11-19T13:23:54;16.05;;;3.97;;
13590;SDS011;6866;50.778;7.206;2023-11-19T13:26:20;17.75;;;4.75;;
13590;SDS011;6866;50.778;7.206;2023-11-19T13:28:46;16.77;;;4.43;;
13590;SDS011;6866;50.778;7.206;2023-11-19T13:31:12;17.98;;;4.63;;
13590;SDS011;6866;50.778;7.206;2023-11-19T13:33:37;19.20;;;4.53;;
13590;SDS011;6866;50.778;7.206;2023-11-19T13:36:03;18.42;;;4.20;;
13590;SDS011;6866;50.778;7.206;2023-11-19T13:38:36;18.38;;;4.45;;
13590;SDS011;6866;50.778;7.206;2023-11-19T13:41:04;19.88;;;5.25;;
13590;SDS011;6866;50.778;7.206;2023-11-19T13:43:30;16.92;;;4.13;;
13590;SDS011;6866;50.778;7.206;2023-11-19T13:45:56;18.55;;;4.28;;
13590;SDS011;6866;50.778;7.206;2023-11-19T13:48:23;21.48;;;4.07;;
13590;SDS011;6866;50.778;7.206;2023-11-19T13:50:49;20.13;;;4.50;;
13590;SDS011;6866;50.778;7.206;2023-11-19T13:53:15;21.50;;;5.15;;
13590;SDS011;6866;50.778;7.206;2023-11-19T13:55:41;18.23;;;4.97;;
13590;SDS011;6866;50.778;7.206;2023-11-19T13:58:07;20.80;;;4.28;;
13590;SDS011;6866;50.778;7.206;2023-11-19T14:00:33;21.73;;;4.55;;
13590;SDS011;6866;50.778;7.206;2023-11-19T14:02:58;18.92;;;4.35;;
13590;SDS011;6866;50.778;7.206;2023-11-19T14:05:24;20.38;;;4.85;;
13590;SDS011;6866;50.778;7.206;2023-11-19T14:07:50;19.48;;;4.30;;
13590;SDS011;6866;50.778;7.206;2023-11-19T14:10:16;20.27;;;4.97;;
13590;SDS011;6866;50.778;7.206;2023-11-19T14:12:42;19.27;;;4.47;;
13590;SDS011;6866;50.778;7.206;2023-11-19T14:15:09;19.65;;;4.93;;
13590;SDS011;6866;50.778;7.206;2023-11-19T14:17:38;20.02;;;4.90;;
13590;SDS011;6866;50.778;7.206;2023-11-19T14:20:04;22.58;;;5.22;;
13590;SDS011;6866;50.778;7.206;2023-11-19T14:22:37;19.25;;;4.60;;
13590;SDS011;6866;50.778;7.206;2023-11-19T14:25:07;27.40;;;7.28;;
13590;SDS011;6866;50.778;7.206;2023-11-19T14:27:39;18.27;;;4.85;;
13590;SDS011;6866;50.778;7.206;2023-11-19T14:30:06;20.38;;;5.30;;
13590;SDS011;6866;50.778;7.206;2023-11-19T14:32:33;22.63;;;5.40;;
13590;SDS011;6866;50.778;7.206;2023-11-19T14:35:00;22.20;;;5.97;;
13590;SDS011;6866;50.778;7.206;2023-11-19T14:37:25;20.20;;;5.43;;
13590;SDS011;6866;50.778;7.206;2023-11-19T14:39:51;20.60;;;4.75;;
13590;SDS011;6866;50.778;7.206;2023-11-19T14:42:17;23.05;;;5.38;;
13590;SDS011;6866;50.778;7.206;2023-11-19T14:44:42;19.05;;;5.18;;
13590;SDS011;6866;50.778;7.206;2023-11-19T14:47:08;22.05;;;5.30;;
13590;SDS011;6866;50.778;7.206;2023-11-19T14:49:36;20.80;;;4.95;;
13590;SDS011;6866;50.778;7.206;2023-11-19T14:52:03;19.38;;;5.03;;
13590;SDS011;6866;50.778;7.206;2023-11-19T14:54:29;19.10;;;4.65;;
13590;SDS011;6866;50.778;7.206;2023-11-19T14:56:55;11.23;;;3.05;;
13590;SDS011;6866;50.778;7.206;2023-11-19T14:59:21;17.27;;;4.03;;
13590;SDS011;6866;50.778;7.206;2023-11-19T15:01:47;16.17;;;3.80;;
13590;SDS011;6866;50.778;7.206;2023-11-19T15:04:12;16.42;;;3.85;;
13590;SDS011;6866;50.778;7.206;2023-11-19T15:06:38;17.20;;;3.90;;
13590;SDS011;6866;50.778;7.206;2023-11-19T15:09:04;16.52;;;4.30;;
13590;SDS011;6866;50.778;7.206;2023-11-19T15:11:32;22.10;;;4.47;;
13590;SDS011;6866;50.778;7.206;2023-11-19T15:13:58;20.27;;;4.72;;
13590;SDS011;6866;50.778;7.206;2023-11-19T15:16:24;16.60;;;4.65;;
13590;SDS011;6866;50.778;7.206;2023-11-19T15:18:58;19.63;;;5.10;;
13590;SDS011;6866;50.778;7.206;2023-11-19T15:23:55;19.95;;;5.20;;
13590;SDS011;6866;50.778;7.206;2023-11-19T15:26:21;17.77;;;5.15;;